Time;durP1;ratioP1;P1;durP2;ratioP2;P2;SDS_P1;SDS_P2;PMS_P1;PMS_P2;Temp;Humidity;BMP_temperature;BMP_pressure;BME280_temperature;BME280_humidity;BME280_pressure;Samples;Min_cycle;Max_cycle;Signal;HPM_P1;HPM_P2
2023/01/18 00:00:13;;;;;;;16.87;12.97;;;;;;;-2.34;100.00;98250.91;698519;28;1426;-67
2023/01/18 00:00:36;;;;;;;18.75;12.88;;;;;;;-2.34;100.00;98245.78;697410;28;1105;-67
2023/01/18 00:01:00;;;;;;;18.38;13.10;;;;;;;-2.36;100.00;98247.50;700870;28;5123;-66
2023/01/18 00:01:21;;;;;;;17.42;12.77;;;;;;;-2.38;100.00;98249.16;700038;28;977;-66
2023/01/18 00:01:41;;;;;;;15.90;12.47;;;;;;;-2.41;100.00;98252.56;700225;28;1305;-67
2023/01/18 00:02:01;;;;;;;18.00;12.27;;;;;;;-2.43;100.00;98254.25;701375;28;1040;-65
2023/01/18 00:02:22;;;;;;;17.25;12.55;;;;;;;-2.40;100.00;98254.28;701817;28;923;-68
2023/01/18 00:02:45;;;;;;;16.80;12.67;;;;;;;-2.37;100.00;98250.91;701544;28;919;-66
2023/01/18 00:03:11;;;;;;;16.48;12.57;;;;;;;-2.38;100.00;98254.28;698576;28;955;-67
2023/01/18 00:03:33;;;;;;;17.10;12.85;;;;;;;-2.37;100.00;98248.34;697895;28;1023;-68
2023/01/18 00:03:54;;;;;;;16.98;12.82;;;;;;;-2.40;100.00;98254.28;697278;28;4355;-66
2023/01/18 00:04:15;;;;;;;17.15;12.88;;;;;;;-2.45;100.00;98249.13;698646;28;1238;-67
2023/01/18 00:04:35;;;;;;;17.50;13.05;;;;;;;-2.40;100.00;98244.88;698927;28;958;-67
2023/01/18 00:04:55;;;;;;;17.23;13.10;;;;;;;-2.35;100.00;98256.88;700030;28;980;-67
2023/01/18 00:05:16;;;;;;;17.93;13.17;;;;;;;-2.36;100.00;98252.63;701374;28;1322;-68
2023/01/18 00:05:39;;;;;;;17.73;12.80;;;;;;;-2.36;100.00;98252.63;697600;28;2139;-65
2023/01/18 00:06:01;;;;;;;17.60;12.73;;;;;;;-2.37;100.00;98256.00;700953;28;1310;-67
2023/01/18 00:06:26;;;;;;;18.35;13.02;;;;;;;-2.38;100.00;98254.28;701521;28;1097;-68
2023/01/18 00:06:46;;;;;;;18.90;13.50;;;;;;;-2.43;100.00;98249.16;701045;28;4379;-67
2023/01/18 00:07:07;;;;;;;18.77;13.20;;;;;;;-2.45;100.00;98248.25;701536;28;1105;-65
2023/01/18 00:07:27;;;;;;;17.80;13.37;;;;;;;-2.43;100.00;98249.16;702023;28;859;-68
2023/01/18 00:07:48;;;;;;;16.48;12.68;;;;;;;-2.41;100.00;98245.75;701944;28;1310;-67
2023/01/18 00:08:11;;;;;;;16.55;12.35;;;;;;;-2.37;100.00;98250.91;701259;28;1260;-68
2023/01/18 00:08:32;;;;;;;16.88;12.80;;;;;;;-2.39;100.00;98245.75;700056;28;1006;-66
2023/01/18 00:08:54;;;;;;;16.85;13.65;;;;;;;-2.33;100.00;98247.50;698451;28;1343;-67
2023/01/18 00:09:14;;;;;;;17.20;13.05;;;;;;;-2.25;100.00;98246.72;698137;28;1125;-66
2023/01/18 00:09:35;;;;;;;17.40;13.13;;;;;;;-2.20;100.00;98243.34;698780;28;1146;-66
2023/01/18 00:09:55;;;;;;;16.85;13.05;;;;;;;-2.20;100.00;98251.03;698115;28;4264;-64
2023/01/18 00:10:15;;;;;;;15.30;12.83;;;;;;;-2.20;100.00;98249.34;698434;28;995;-68
2023/01/18 00:10:36;;;;;;;17.58;13.07;;;;;;;-2.19;100.00;98245.91;699155;28;1239;-67
2023/01/18 00:11:04;;;;;;;16.57;13.17;;;;;;;-2.17;100.00;98246.78;701735;28;1070;-66
2023/01/18 00:11:24;;;;;;;16.50;12.88;;;;;;;-2.20;100.00;98244.22;698615;28;866;-67
2023/01/18 00:11:47;;;;;;;17.03;13.17;;;;;;;-2.25;100.00;98245.88;696678;28;947;-66
2023/01/18 00:12:07;;;;;;;17.58;12.70;;;;;;;-2.31;100.00;98245.81;696398;28;1287;-67
2023/01/18 00:12:28;;;;;;;17.60;13.03;;;;;;;-2.35;100.00;98254.31;694572;28;1195;-66
2023/01/18 00:12:49;;;;;;;17.92;13.05;;;;;;;-2.40;100.00;98247.44;692928;28;4383;-67
2023/01/18 00:13:10;;;;;;;17.60;12.68;;;;;;;-2.45;100.00;98254.25;695585;28;900;-68
2023/01/18 00:13:31;;;;;;;16.85;12.88;;;;;;;-2.48;100.00;98251.66;698686;28;879;-66
2023/01/18 00:13:53;;;;;;;18.55;13.43;;;;;;;-2.55;100.00;98247.31;698846;28;970;-68
2023/01/18 00:14:13;;;;;;;18.48;13.10;;;;;;;-2.57;100.00;98256.69;698402;28;1410;-66
2023/01/18 00:14:33;;;;;;;17.33;13.10;;;;;;;-2.63;100.00;98247.28;699486;28;912;-68
2023/01/18 00:14:54;;;;;;;17.55;13.05;;;;;;;-2.64;100.00;98253.22;701910;28;775;-67
2023/01/18 00:15:15;;;;;;;18.53;13.20;;;;;;;-2.66;100.00;98256.59;701349;28;1212;-67
2023/01/18 00:15:36;;;;;;;18.70;13.45;;;;;;;-2.66;100.00;98256.59;700769;28;1070;-68
2023/01/18 00:16:03;;;;;;;18.63;13.48;;;;;;;-2.68;100.00;98255.75;695620;28;4282;-68
2023/01/18 00:16:25;;;;;;;16.33;13.13;;;;;;;-2.71;100.00;98248.91;698212;28;899;-67
2023/01/18 00:16:45;;;;;;;16.30;13.65;;;;;;;-2.74;100.00;98256.53;698642;28;824;-67
2023/01/18 00:17:05;;;;;;;16.50;13.20;;;;;;;-2.77;100.00;98249.69;698383;28;1407;-68
2023/01/18 00:17:26;;;;;;;18.53;13.47;;;;;;;-2.79;100.00;98253.06;698730;28;984;-68
2023/01/18 00:17:46;;;;;;;17.55;13.32;;;;;;;-2.85;100.00;98253.00;699644;28;1239;-68
2023/01/18 00:18:06;;;;;;;16.80;13.20;;;;;;;-2.88;100.00;98253.84;701278;28;875;-67
2023/01/18 00:18:27;;;;;;;18.50;13.27;;;;;;;-2.86;100.00;98257.25;701426;28;844;-65
2023/01/18 00:18:56;;;;;;;17.33;12.80;;;;;;;-2.80;100.00;98252.19;701073;28;4257;-66
2023/01/18 00:19:16;;;;;;;18.88;13.77;;;;;;;-2.79;100.00;98253.06;701605;28;1103;-67
2023/01/18 00:19:36;;;;;;;18.43;13.67;;;;;;;-2.82;100.00;98248.78;698690;28;931;-68
2023/01/18 00:19:57;;;;;;;18.20;13.80;;;;;;;-2.82;100.00;98247.94;698191;28;1063;-66
2023/01/18 00:20:21;;;;;;;18.07;13.37;;;;;;;-2.80;100.00;98253.91;698292;28;3943;-68
2023/01/18 00:20:41;;;;;;;17.67;13.43;;;;;;;-2.77;100.00;98254.81;698095;28;951;-67
2023/01/18 00:21:07;;;;;;;19.13;14.57;;;;;;;-2.82;100.00;98251.34;697384;28;1283;-65
2023/01/18 00:21:27;;;;;;;18.15;13.82;;;;;;;-2.86;100.00;98253.88;699507;28;868;-68
2023/01/18 00:21:53;;;;;;;16.80;13.23;;;;;;;-2.86;100.00;98253.88;698282;28;4552;-68
2023/01/18 00:22:13;;;;;;;17.98;13.32;;;;;;;-2.82;100.00;98255.59;698449;28;963;-66
2023/01/18 00:22:33;;;;;;;17.57;13.50;;;;;;;-2.81;100.00;98255.63;697355;28;1556;-68
2023/01/18 00:22:54;;;;;;;18.67;13.57;;;;;;;-2.80;100.00;98259.88;698726;28;1419;-68
2023/01/18 00:23:14;;;;;;;18.73;13.30;;;;;;;-2.78;100.00;98254.81;698306;28;1260;-68
2023/01/18 00:23:35;;;;;;;18.07;13.10;;;;;;;-2.75;100.00;98252.25;699778;28;935;-68
2023/01/18 00:23:56;;;;;;;17.55;13.30;;;;;;;-2.64;100.00;98260.06;701300;28;1108;-67
2023/01/18 00:24:16;;;;;;;16.90;13.23;;;;;;;-2.62;100.00;98255.78;698172;28;1300;-68
2023/01/18 00:24:37;;;;;;;16.63;13.23;;;;;;;-2.64;100.00;98257.50;697185;28;947;-68
2023/01/18 00:24:57;;;;;;;17.73;13.80;;;;;;;-2.69;100.00;98261.69;695226;28;4299;-67
2023/01/18 00:25:19;;;;;;;17.33;13.30;;;;;;;-2.68;100.00;98255.75;695660;28;923;-68
2023/01/18 00:25:39;;;;;;;18.33;13.40;;;;;;;-2.61;100.00;98263.47;696063;28;971;-67
2023/01/18 00:26:06;;;;;;;17.50;13.00;;;;;;;-2.56;100.00;98253.31;696164;28;1142;-67
2023/01/18 00:26:26;;;;;;;18.88;13.50;;;;;;;-2.57;100.00;98252.44;696074;28;2112;-66
2023/01/18 00:26:46;;;;;;;18.27;13.30;;;;;;;-2.60;100.00;98252.41;696839;28;947;-68
2023/01/18 00:27:08;;;;;;;17.80;13.07;;;;;;;-2.61;100.00;98258.34;698486;28;1270;-65
2023/01/18 00:27:29;;;;;;;17.75;13.05;;;;;;;-2.54;100.00;98259.28;698934;28;808;-66
2023/01/18 00:27:51;;;;;;;17.07;13.00;;;;;;;-2.53;100.00;98255.88;694558;28;4605;-67
2023/01/18 00:28:12;;;;;;;19.02;13.02;;;;;;;-2.57;100.00;98257.53;696054;28;1176;-67
2023/01/18 00:28:33;;;;;;;18.17;12.90;;;;;;;-2.63;100.00;98257.50;698702;28;835;-67
2023/01/18 00:28:55;;;;;;;16.77;12.68;;;;;;;-2.66;100.00;98262.59;698568;28;1567;-66
2023/01/18 00:29:16;;;;;;;16.55;13.20;;;;;;;-2.64;100.00;98265.16;695460;28;1996;-66
2023/01/18 00:29:36;;;;;;;17.27;13.53;;;;;;;-2.59;100.00;98255.81;694980;28;1379;-68
2023/01/18 00:29:59;;;;;;;16.85;13.18;;;;;;;-2.54;100.00;98259.28;692099;28;1030;-68
2023/01/18 00:30:22;;;;;;;17.00;13.00;;;;;;;-2.56;100.00;98255.88;693145;28;1033;-66
2023/01/18 00:30:42;;;;;;;18.45;13.30;;;;;;;-2.55;100.00;98267.78;693753;28;4412;-68
2023/01/18 00:31:29;;;;;;;19.43;13.50;;;;;;;-2.55;100.00;98261.81;695418;28;1248;-67
2023/01/18 00:31:49;;;;;;;16.92;12.80;;;;;;;-2.59;100.00;98264.38;695939;28;2173;-67
2023/01/18 00:32:10;;;;;;;16.48;13.13;;;;;;;-2.58;100.00;98270.31;701428;28;1066;-67
2023/01/18 00:32:30;;;;;;;17.83;13.50;;;;;;;-2.61;100.00;98258.34;701737;28;950;-67
2023/01/18 00:32:56;;;;;;;17.98;13.50;;;;;;;-2.61;100.00;98268.59;701477;28;1411;-67
2023/01/18 00:33:16;;;;;;;17.63;13.10;;;;;;;-2.60;100.00;98270.31;701411;28;855;-67
2023/01/18 00:33:37;;;;;;;18.40;13.10;;;;;;;-2.58;100.00;98268.63;701499;28;836;-69
2023/01/18 00:33:57;;;;;;;17.05;13.70;;;;;;;-2.57;100.00;98265.22;701141;28;4663;-66
2023/01/18 00:34:18;;;;;;;16.77;13.47;;;;;;;-2.56;100.00;98268.66;701877;28;884;-67
2023/01/18 00:34:38;;;;;;;17.25;13.20;;;;;;;-2.58;100.00;98262.66;700329;28;1577;-68
2023/01/18 00:34:59;;;;;;;17.83;13.07;;;;;;;-2.60;100.00;98270.31;700821;28;1000;-65
2023/01/18 00:35:21;;;;;;;17.15;13.43;;;;;;;-2.59;100.00;98268.59;699490;28;815;-66
2023/01/18 00:35:41;;;;;;;17.13;12.82;;;;;;;-2.62;100.00;98266.03;699072;28;864;-68
2023/01/18 00:36:02;;;;;;;17.13;12.73;;;;;;;-2.57;100.00;98264.38;698959;28;1916;-68
2023/01/18 00:36:22;;;;;;;17.77;13.13;;;;;;;-2.52;100.00;98266.97;699155;28;821;-68
2023/01/18 00:36:43;;;;;;;17.07;12.73;;;;;;;-2.43;100.00;98260.22;699256;28;4502;-67
2023/01/18 00:37:03;;;;;;;15.73;12.37;;;;;;;-2.37;100.00;98261.97;696010;28;1295;-67
2023/01/18 00:37:24;;;;;;;17.20;12.70;;;;;;;-2.36;100.00;98257.72;697659;28;947;-67
2023/01/18 00:37:44;;;;;;;17.40;12.90;;;;;;;-2.36;100.00;98267.97;698501;28;836;-67
2023/01/18 00:38:05;;;;;;;16.52;12.95;;;;;;;-2.35;100.00;98262.88;698510;28;1058;-68
2023/01/18 00:38:26;;;;;;;16.50;12.95;;;;;;;-2.36;100.00;98252.63;697804;28;983;-67
2023/01/18 00:38:50;;;;;;;16.25;12.63;;;;;;;-2.34;100.00;98262.03;698782;28;5219;-68
2023/01/18 00:39:13;;;;;;;16.80;12.80;;;;;;;-2.41;100.00;98261.09;700631;28;983;-67
2023/01/18 00:39:34;;;;;;;18.05;12.70;;;;;;;-2.48;100.00;98263.59;701533;28;978;-67
2023/01/18 00:39:54;;;;;;;17.00;12.60;;;;;;;-2.53;100.00;98255.88;700993;28;4455;-67
2023/01/18 00:40:14;;;;;;;17.80;12.83;;;;;;;-2.57;100.00;98262.66;701159;28;883;-68
2023/01/18 00:40:35;;;;;;;17.08;13.27;;;;;;;-2.58;100.00;98250.69;701505;28;822;-67
2023/01/18 00:40:56;;;;;;;17.17;13.30;;;;;;;-2.58;100.00;98260.94;701527;28;982;-65
2023/01/18 00:41:16;;;;;;;16.77;12.98;;;;;;;-2.62;100.00;98258.34;698529;28;908;-67
2023/01/18 00:43:37;;;;;;;16.65;13.27;;;;;;;-2.63;100.00;98261.75;698607;28;1304;-68
2023/01/18 00:43:37;;;;;;;16.80;12.60;;;;;;;-2.69;100.00;98257.44;700822;28;919;-68
2023/01/18 00:43:58;;;;;;;19.73;13.50;;;;;;;-2.71;100.00;98254.00;701430;28;1014;-67
2023/01/18 00:44:18;;;;;;;18.57;13.37;;;;;;;-2.74;100.00;98259.09;701951;28;962;-68
2023/01/18 00:44:38;;;;;;;16.93;13.27;;;;;;;-2.78;100.00;98257.34;701931;28;978;-68
2023/01/18 00:44:59;;;;;;;18.13;12.80;;;;;;;-2.80;100.00;98257.31;700940;28;1101;-69
2023/01/18 00:45:19;;;;;;;18.20;13.00;;;;;;;-2.82;100.00;98255.59;700645;28;1474;-67
2023/01/18 00:45:41;;;;;;;17.50;13.02;;;;;;;-2.84;100.00;98265.78;700904;28;4554;-68
2023/01/18 00:46:01;;;;;;;17.67;13.30;;;;;;;-2.87;100.00;98260.66;700197;28;997;-67
2023/01/18 00:46:24;;;;;;;16.90;13.13;;;;;;;-2.92;100.00;98258.06;698137;28;970;-68
2023/01/18 00:46:48;;;;;;;17.80;13.00;;;;;;;-2.93;100.00;98256.34;697394;28;1369;-67
2023/01/18 00:47:09;;;;;;;17.13;13.30;;;;;;;-2.92;100.00;98262.34;697962;28;1153;-67
2023/01/18 00:47:29;;;;;;;18.73;13.85;;;;;;;-2.93;100.00;98263.16;698401;28;942;-66
2023/01/18 00:47:49;;;;;;;18.53;13.60;;;;;;;-2.94;100.00;98264.00;698625;28;915;-68
2023/01/18 00:48:10;;;;;;;18.60;13.68;;;;;;;-2.95;100.00;98264.84;697839;28;1315;-67
2023/01/18 00:48:30;;;;;;;17.53;13.53;;;;;;;-2.97;100.00;98261.41;698534;28;1196;-68
2023/01/18 00:48:51;;;;;;;17.90;13.55;;;;;;;-2.97;100.00;98259.69;695343;28;4284;-66
2023/01/18 00:49:11;;;;;;;17.57;13.50;;;;;;;-2.96;100.00;98263.13;695493;28;1065;-68
2023/01/18 00:49:32;;;;;;;19.38;13.88;;;;;;;-2.94;100.00;98271.66;694762;28;841;-68
2023/01/18 00:49:53;;;;;;;18.40;13.67;;;;;;;-2.94;100.00;98269.97;693797;28;730;-69
2023/01/18 00:50:14;;;;;;;18.58;13.68;;;;;;;-2.94;100.00;98264.84;698083;28;1232;-67
2023/01/18 00:50:35;;;;;;;19.60;13.73;;;;;;;-2.93;100.00;98271.69;695162;28;887;-67
2023/01/18 00:50:55;;;;;;;19.27;13.80;;;;;;;-2.93;100.00;98269.13;698416;28;1008;-65
2023/01/18 00:51:20;;;;;;;17.50;13.30;;;;;;;-2.92;100.00;98264.88;698428;28;951;-68
2023/01/18 00:51:40;;;;;;;16.98;13.07;;;;;;;-2.85;100.00;98271.78;695158;28;4416;-68
2023/01/18 00:52:01;;;;;;;17.30;13.00;;;;;;;-2.82;100.00;98264.13;692754;28;966;-68
2023/01/18 00:52:21;;;;;;;17.00;13.07;;;;;;;-2.82;100.00;98269.25;694031;28;923;-67
2023/01/18 00:52:45;;;;;;;17.03;13.10;;;;;;;-2.77;100.00;98271.84;696015;28;886;-69
2023/01/18 00:53:05;;;;;;;16.90;12.98;;;;;;;-2.76;100.00;98264.19;692839;28;1350;-67
2023/01/18 00:53:25;;;;;;;18.10;13.23;;;;;;;-2.77;100.00;98267.59;693773;28;915;-68
2023/01/18 00:53:46;;;;;;;18.52;13.10;;;;;;;-2.82;100.00;98265.84;695716;28;1581;-67
2023/01/18 00:54:06;;;;;;;18.03;13.30;;;;;;;-2.87;100.00;98263.22;696587;28;986;-66
2023/01/18 00:54:27;;;;;;;17.52;13.45;;;;;;;-2.88;100.00;98268.31;695982;28;891;-67
2023/01/18 00:54:47;;;;;;;17.00;13.20;;;;;;;-2.93;100.00;98265.72;695258;28;4360;-67
2023/01/18 00:55:08;;;;;;;17.95;13.23;;;;;;;-2.94;100.00;98261.44;698575;28;1014;-67
2023/01/18 00:55:28;;;;;;;19.38;12.95;;;;;;;-2.93;100.00;98265.72;698180;28;1085;-67
2023/01/18 00:55:48;;;;;;;18.70;12.83;;;;;;;-2.89;100.00;98269.16;698279;28;1906;-67
2023/01/18 00:56:13;;;;;;;18.07;13.40;;;;;;;-2.86;100.00;98261.53;698149;28;1177;-66
2023/01/18 00:56:33;;;;;;;18.30;13.48;;;;;;;-2.84;100.00;98268.34;700412;28;856;-67
2023/01/18 00:56:53;;;;;;;18.63;13.03;;;;;;;-2.85;100.00;98266.66;701620;28;895;-68
2023/01/18 00:57:14;;;;;;;17.85;12.77;;;;;;;-2.82;100.00;98265.84;701352;28;1476;-67
2023/01/18 00:57:34;;;;;;;17.80;13.10;;;;;;;-2.83;100.00;98270.06;701760;28;1593;-67
2023/01/18 00:57:54;;;;;;;17.50;13.10;;;;;;;-2.83;100.00;98266.66;700750;28;4612;-66
2023/01/18 00:58:15;;;;;;;17.23;12.93;;;;;;;-2.87;100.00;98267.47;701543;28;1504;-67
2023/01/18 00:58:38;;;;;;;19.20;12.90;;;;;;;-2.91;100.00;98264.91;698628;28;1114;-68
2023/01/18 00:58:58;;;;;;;16.83;12.63;;;;;;;-2.93;100.00;98266.56;697410;28;1062;-67
2023/01/18 00:59:19;;;;;;;16.37;12.77;;;;;;;-2.93;100.00;98268.28;697369;28;1010;-68
2023/01/18 00:59:39;;;;;;;17.93;13.77;;;;;;;-2.90;100.00;98265.75;698929;28;919;-67
2023/01/18 00:59:59;;;;;;;16.58;13.43;;;;;;;-2.85;100.00;98266.66;698114;28;1075;-67
2023/01/18 01:00:27;;;;;;;16.43;13.03;;;;;;;-2.86;100.00;98270.06;698893;28;1495;-68
2023/01/18 01:00:50;;;;;;;18.40;13.07;;;;;;;-2.84;100.00;98275.19;699588;28;4374;-67
2023/01/18 01:01:12;;;;;;;17.40;12.85;;;;;;;-2.84;100.00;98273.47;696999;28;1071;-67
2023/01/18 01:01:32;;;;;;;17.38;13.15;;;;;;;-2.83;100.00;98274.34;697716;28;1030;-68
2023/01/18 01:01:53;;;;;;;15.93;12.75;;;;;;;-2.81;100.00;98270.09;698612;28;820;-67
2023/01/18 01:02:13;;;;;;;15.77;12.20;;;;;;;-2.80;100.00;98271.81;698149;28;1390;-68
2023/01/18 01:02:38;;;;;;;16.50;12.63;;;;;;;-2.74;100.00;98272.75;696052;28;801;-66
2023/01/18 01:02:59;;;;;;;17.00;12.77;;;;;;;-2.66;100.00;98270.28;694338;28;1328;-66
2023/01/18 01:03:20;;;;;;;17.33;12.60;;;;;;;-2.59;100.00;98273.72;696294;28;914;-67
2023/01/18 01:06:59;;;;;;;17.55;13.25;;;;;;;-2.86;100.00;98275.16;689282;28;4758;-68
2023/01/18 01:07:19;;;;;;;16.93;13.03;;;;;;;-2.88;100.00;98273.44;690043;28;1540;-67
2023/01/18 01:07:39;;;;;;;16.97;12.60;;;;;;;-2.87;100.00;98273.44;690392;28;819;-67
2023/01/18 01:07:59;;;;;;;17.73;12.97;;;;;;;-2.87;100.00;98276.00;689857;28;1195;-67
2023/01/18 01:08:22;;;;;;;16.80;13.00;;;;;;;-2.84;100.00;98270.06;690148;28;927;-67
2023/01/18 01:08:48;;;;;;;17.33;12.93;;;;;;;-2.82;100.00;98279.47;689961;28;978;-67
2023/01/18 01:09:10;;;;;;;18.17;12.95;;;;;;;-2.82;100.00;98274.34;690059;28;1190;-66
2023/01/18 01:09:30;;;;;;;19.10;12.95;;;;;;;-2.83;100.00;98277.75;690255;28;1156;-67
2023/01/18 01:09:50;;;;;;;17.67;13.27;;;;;;;-2.83;100.00;98275.19;698071;28;4375;-67
2023/01/18 01:10:11;;;;;;;18.42;13.02;;;;;;;-2.82;100.00;98281.19;700058;28;1138;-66
2023/01/18 01:10:33;;;;;;;18.03;13.00;;;;;;;-2.86;100.00;98282.84;701315;28;1402;-66
2023/01/18 01:11:04;;;;;;;17.58;13.18;;;;;;;-2.87;100.00;98276.00;701176;28;824;-66
2023/01/18 01:11:24;;;;;;;16.88;12.85;;;;;;;-2.86;100.00;98275.16;700123;28;836;-66
2023/01/18 01:26:07;;;;;;;19.13;13.88;;;;;;;-2.69;100.00;98277.03;697898;28;1333;-67
2023/01/18 01:26:28;;;;;;;18.35;13.48;;;;;;;-2.74;100.00;98287.22;697596;28;1248;-68
2023/01/18 01:26:48;;;;;;;16.98;13.07;;;;;;;-2.74;100.00;98288.09;697567;28;1075;-67
2023/01/18 01:27:10;;;;;;;17.67;12.87;;;;;;;-2.74;100.00;98284.69;697137;28;1033;-67
2023/01/18 01:27:30;;;;;;;18.00;13.07;;;;;;;-2.70;100.00;98277.88;698523;28;1107;-67
2023/01/18 01:27:50;;;;;;;17.83;13.00;;;;;;;-2.66;100.00;98284.75;697928;28;4696;-68
2023/01/18 01:28:11;;;;;;;18.10;13.32;;;;;;;-2.64;100.00;98281.34;698225;28;1201;-66
2023/01/18 01:28:31;;;;;;;17.47;13.10;;;;;;;-2.63;100.00;98285.63;698875;28;895;-68
2023/01/18 01:28:52;;;;;;;17.47;12.83;;;;;;;-2.60;100.00;98284.81;701301;28;1157;-67
2023/01/18 01:29:12;;;;;;;17.63;12.53;;;;;;;-2.62;100.00;98282.22;700652;28;1187;-66
2023/01/18 01:29:33;;;;;;;18.27;13.27;;;;;;;-2.63;100.00;98287.31;701026;28;1216;-68
2023/01/18 01:29:53;;;;;;;18.87;13.73;;;;;;;-2.67;100.00;98278.78;700784;28;1324;-68
2023/01/18 01:30:16;;;;;;;20.30;14.20;;;;;;;-2.69;100.00;98279.59;700211;28;1126;-66
2023/01/18 01:30:36;;;;;;;17.27;13.18;;;;;;;-2.76;100.00;98284.63;701364;28;1079;-67
2023/01/18 01:30:59;;;;;;;17.27;13.23;;;;;;;-2.79;100.00;98281.22;700013;28;4481;-67
2023/01/18 01:31:19;;;;;;;19.05;13.75;;;;;;;-2.82;100.00;98281.19;699997;28;990;-68
2023/01/18 01:31:39;;;;;;;19.57;14.10;;;;;;;-2.86;100.00;98280.28;701530;28;1071;-67
2023/01/18 01:32:01;;;;;;;19.80;13.55;;;;;;;-2.85;100.00;98281.13;700177;28;1064;-67
2023/01/18 01:32:22;;;;;;;18.38;13.25;;;;;;;-2.83;100.00;98280.31;700367;28;1039;-66
2023/01/18 01:32:43;;;;;;;18.80;13.77;;;;;;;-2.86;100.00;98277.72;700956;28;992;-67
2023/01/18 01:33:03;;;;;;;19.52;14.10;;;;;;;-2.93;100.00;98281.06;698072;28;1000;-68
2023/01/18 01:33:24;;;;;;;19.73;14.20;;;;;;;-2.98;100.00;98273.31;698177;28;988;-66
2023/01/18 01:33:47;;;;;;;19.67;14.57;;;;;;;-2.99;100.00;98280.97;698014;28;4561;-67
2023/01/18 01:34:08;;;;;;;22.10;15.85;;;;;;;-2.99;100.00;98281.84;697149;28;1202;-66
2023/01/18 01:34:30;;;;;;;23.63;16.15;;;;;;;-2.96;100.00;98273.38;698228;28;1319;-68
2023/01/18 01:34:50;;;;;;;22.27;17.05;;;;;;;-2.95;100.00;98280.16;695525;28;1091;-67
2023/01/18 01:35:11;;;;;;;30.08;21.50;;;;;;;-2.96;100.00;98284.44;692731;28;973;-66
2023/01/18 01:35:31;;;;;;;30.30;21.90;;;;;;;-2.95;100.00;98277.63;689119;28;942;-67
2023/01/18 01:35:59;;;;;;;34.03;23.47;;;;;;;-2.96;100.00;98281.03;690169;28;1914;-67
2023/01/18 01:36:24;;;;;;;33.70;22.35;;;;;;;-2.96;100.00;98275.91;690179;28;1404;-68
2023/01/18 01:36:45;;;;;;;26.38;19.42;;;;;;;-2.93;100.00;98287.03;691973;28;4398;-67
2023/01/18 01:37:05;;;;;;;24.73;17.97;;;;;;;-2.86;100.00;98282.00;696518;28;1166;-68
2023/01/18 01:37:25;;;;;;;25.08;17.52;;;;;;;-2.83;100.00;98289.69;699660;28;1335;-68
2023/01/18 01:37:46;;;;;;;27.17;20.17;;;;;;;-2.86;100.00;98282.84;700858;28;1287;-67
2023/01/18 01:38:06;;;;;;;23.70;18.50;;;;;;;-2.84;100.00;98286.25;700544;28;1086;-67
2023/01/18 01:38:27;;;;;;;20.63;15.93;;;;;;;-2.84;100.00;98285.41;700839;28;1348;-67
2023/01/18 01:38:48;;;;;;;21.05;15.57;;;;;;;-2.83;100.00;98293.09;699897;28;5176;-67
2023/01/18 01:39:09;;;;;;;21.45;15.48;;;;;;;-2.81;100.00;98283.75;699648;28;1113;-67
2023/01/18 01:39:30;;;;;;;23.55;17.33;;;;;;;-2.87;100.00;98288.78;700436;28;1153;-68
2023/01/18 01:39:50;;;;;;;22.73;17.13;;;;;;;-2.86;100.00;98287.09;700075;28;4555;-67
2023/01/18 01:40:11;;;;;;;23.10;17.03;;;;;;;-2.87;100.00;98287.94;700353;28;1051;-68
2023/01/18 01:40:31;;;;;;;25.23;17.73;;;;;;;-2.88;100.00;98292.22;700818;28;1043;-67
2023/01/18 01:41:03;;;;;;;20.27;15.50;;;;;;;-2.87;100.00;98287.94;698248;28;1237;-68
2023/01/18 01:41:25;;;;;;;20.10;15.32;;;;;;;-2.88;100.00;98283.66;695673;28;1111;-68
2023/01/18 01:41:46;;;;;;;20.75;15.20;;;;;;;-2.78;100.00;98290.59;694962;28;1183;-67
2023/01/18 01:42:10;;;;;;;19.58;14.77;;;;;;;-2.69;100.00;98288.13;695411;28;915;-68
2023/01/18 01:42:30;;;;;;;19.35;14.27;;;;;;;-2.62;100.00;98289.88;695075;28;918;-67
2023/01/18 01:42:51;;;;;;;19.53;13.93;;;;;;;-2.61;100.00;98285.66;694822;28;4454;-67
2023/01/18 01:43:12;;;;;;;20.33;14.43;;;;;;;-2.64;100.00;98283.06;695489;28;1033;-67
2023/01/18 01:43:55;;;;;;;18.23;13.93;;;;;;;-2.60;100.00;98289.94;698453;28;1276;-66
2023/01/18 01:44:18;;;;;;;21.48;16.15;;;;;;;-2.64;100.00;98288.19;700843;28;1094;-67
2023/01/18 01:44:43;;;;;;;20.23;15.55;;;;;;;-2.70;100.00;98288.09;699586;28;1228;-68
2023/01/18 01:45:05;;;;;;;20.65;15.68;;;;;;;-2.76;100.00;98289.75;701047;28;1083;-67
2023/01/18 01:45:28;;;;;;;20.52;15.40;;;;;;;-2.80;100.00;98292.28;700261;28;1130;-67
2023/01/18 01:45:49;;;;;;;22.02;15.57;;;;;;;-2.80;100.00;98292.28;700523;28;4352;-67
2023/01/18 01:46:41;;;;;;;21.33;14.87;;;;;;;-2.75;100.00;98293.19;699155;28;1252;-67
2023/01/18 01:47:20;;;;;;;20.55;14.88;;;;;;;-2.83;100.00;98297.34;699680;28;1407;-68
2023/01/18 01:47:43;;;;;;;20.92;15.27;;;;;;;-2.86;100.00;98294.78;699388;28;2181;-67
2023/01/18 01:48:03;;;;;;;20.48;15.18;;;;;;;-2.86;100.00;98294.78;694693;28;1021;-68
2023/01/18 01:48:24;;;;;;;21.37;15.73;;;;;;;-2.91;100.00;98293.03;692638;28;1143;-67
2023/01/18 01:48:46;;;;;;;21.90;15.75;;;;;;;-2.94;100.00;98298.06;690376;28;4342;-68
2023/01/18 01:49:15;;;;;;;19.58;15.35;;;;;;;-3.04;100.00;98293.72;692269;28;1353;-67
2023/01/18 01:49:41;;;;;;;20.30;14.88;;;;;;;-3.10;100.00;98299.63;693386;28;1151;-68
2023/01/18 01:50:08;;;;;;;21.48;14.60;;;;;;;-3.10;100.00;98303.88;696271;28;1206;-68
2023/01/18 01:50:35;;;;;;;19.35;14.55;;;;;;;-3.12;100.00;98298.72;700555;28;1110;-68
2023/01/18 01:50:55;;;;;;;22.35;15.52;;;;;;;-3.14;100.00;98297.00;700931;28;1029;-67
2023/01/18 01:51:18;;;;;;;20.67;15.83;;;;;;;-3.18;100.00;98298.66;700929;28;1040;-67
2023/01/18 01:51:41;;;;;;;21.58;15.60;;;;;;;-3.18;100.00;98293.56;700367;28;4873;-67
2023/01/18 01:52:06;;;;;;;19.48;14.45;;;;;;;-3.15;100.00;98298.69;700347;28;1055;-67
2023/01/18 01:52:32;;;;;;;20.45;14.57;;;;;;;-3.11;100.00;98297.88;700971;28;1150;-67
2023/01/18 01:52:54;;;;;;;19.23;15.10;;;;;;;-3.09;100.00;98296.22;699861;28;1075;-66
2023/01/18 01:53:14;;;;;;;19.42;14.75;;;;;;;-3.05;100.00;98297.09;699404;28;992;-67
2023/01/18 01:53:35;;;;;;;21.60;14.95;;;;;;;-3.05;100.00;98296.25;700974;28;1027;-67
2023/01/18 01:53:59;;;;;;;20.13;14.47;;;;;;;-3.04;100.00;98297.97;700904;28;1133;-65
2023/01/18 01:54:28;;;;;;;20.75;14.43;;;;;;;-3.02;100.00;98296.28;700431;28;1096;-67
2023/01/18 01:54:56;;;;;;;19.92;14.60;;;;;;;-3.02;100.00;98306.50;700221;28;4405;-67
2023/01/18 01:55:30;;;;;;;20.73;14.48;;;;;;;-2.94;100.00;98295.53;699544;28;975;-67
2023/01/18 01:55:51;;;;;;;20.60;14.43;;;;;;;-2.91;100.00;98300.69;700898;28;1894;-68
2023/01/18 01:56:11;;;;;;;19.03;14.30;;;;;;;-2.87;100.00;98306.69;697927;28;1258;-67
2023/01/18 01:56:32;;;;;;;19.93;14.40;;;;;;;-2.82;100.00;98299.94;695385;28;1264;-68
2023/01/18 01:56:56;;;;;;;18.58;14.25;;;;;;;-2.81;100.00;98305.88;692760;28;1388;-67
2023/01/18 01:57:24;;;;;;;20.13;14.27;;;;;;;-2.81;100.00;98299.09;692794;28;1202;-68
2023/01/18 01:57:47;;;;;;;23.20;15.57;;;;;;;-2.84;100.00;98303.31;689622;28;4679;-66
2023/01/18 01:58:28;;;;;;;25.00;16.75;;;;;;;-2.83;100.00;98308.44;691590;28;1128;-67
2023/01/18 01:58:52;;;;;;;24.35;16.08;;;;;;;-2.86;100.00;98305.84;694481;28;1120;-67
2023/01/18 01:59:13;;;;;;;23.50;16.25;;;;;;;-2.84;100.00;98300.75;692611;28;1224;-68
2023/01/18 01:59:41;;;;;;;23.75;16.13;;;;;;;-2.86;100.00;98305.84;694005;28;1003;-67
2023/01/18 02:00:10;;;;;;;25.10;16.90;;;;;;;-2.72;100.00;98297.47;694913;28;1127;-66
2023/01/18 02:00:33;;;;;;;22.65;15.55;;;;;;;-2.60;100.00;98305.28;692115;28;1111;-67
2023/01/18 02:00:54;;;;;;;24.87;16.20;;;;;;;-2.56;100.00;98307.03;695540;28;4329;-68
2023/01/18 02:01:15;;;;;;;25.03;16.37;;;;;;;-2.52;100.00;98305.34;698064;28;1050;-68
2023/01/18 02:01:37;;;;;;;23.15;15.18;;;;;;;-2.45;100.00;98313.09;697544;28;1119;-67
2023/01/18 02:01:58;;;;;;;21.60;14.52;;;;;;;-2.50;100.00;98299.41;697524;28;1035;-67
2023/01/18 02:02:19;;;;;;;22.67;15.23;;;;;;;-2.57;100.00;98301.03;698494;28;1236;-68